CheckWX is a tool to help pilots better visualize weather data.  It is not intended as a substitute for an official pre-flight weather briefing.

09:52:38 UTC

2C8 METAR
Cavalier Municipal Airport
Cavalier, North Dakota, USA
Current

18 mins ago

K2C8 180935Z AUTO 14005KT 10SM CLR 06/04 A2949 RMK AO2
Observed
Oct-18 @ 09:35 UTC
Wind
  • 140° at 5 KTS
Visibility
10 SM
Flight Rules
VFR
Cloud Levels
  • Clear skies
Temperature
C / 43°F
Dewpoint
C / 39°F
Humidity
87%
Altimeter
29.49" Hg
Pressure
998.62 hPa
Previous

38 mins ago

K2C8 180915Z AUTO 14007KT 10SM CLR 06/04 A2949 RMK AO2
Observed
Oct-18 @ 09:15 UTC
Wind
  • 140° at 7 KTS
Visibility
10 SM
Flight Rules
VFR
Cloud Levels
  • Clear skies
Temperature
C / 43°F
Dewpoint
C / 39°F
Humidity
87%
Altimeter
29.49" Hg
Pressure
998.62 hPa
Previous

58 mins ago

K2C8 180855Z AUTO 14006G11KT 10SM CLR 06/04 A2949 RMK AO2
Observed
Oct-18 @ 08:55 UTC
Wind
  • 140° at 6 KTS
  • Gusting to 11 KTS
Visibility
10 SM
Flight Rules
VFR
Cloud Levels
  • Clear skies
Temperature
C / 43°F
Dewpoint
C / 39°F
Humidity
87%
Altimeter
29.49" Hg
Pressure
998.62 hPa